2026/08/01

Sensor Date Temp./Hum.
h4-hermonville 01-08-2026 - 23:58 23.2°C / 41.5%
h2-hermonville 01-08-2026 - 23:54 23.3°C / 41%
h1-hermonville 01-08-2026 - 23:54 21.1°C / 45.5%
h4-hermonville 01-08-2026 - 23:48 23.3°C / 42.5%
h1-hermonville 01-08-2026 - 23:44 21.3°C / 45.5%
h3-hermonville 01-08-2026 - 23:40 22.7°C / 42.5%
h4-hermonville 01-08-2026 - 23:38 23.5°C / 42%
h2-hermonville 01-08-2026 - 23:34 23.8°C / 42.5%
h1-hermonville 01-08-2026 - 23:34 21.4°C / 45.5%
h3-hermonville 01-08-2026 - 23:30 22.9°C / 42.5%
h4-hermonville 01-08-2026 - 23:28 23.6°C / 42.5%
h2-hermonville 01-08-2026 - 23:24 24°C / 40.5%
h1-hermonville 01-08-2026 - 23:24 21.6°C / 45.5%
h3-hermonville 01-08-2026 - 23:20 23.1°C / 42.5%
h4-hermonville 01-08-2026 - 23:18 23.6°C / 42%
h2-hermonville 01-08-2026 - 23:14 24.5°C / 40%
h1-hermonville 01-08-2026 - 23:14 21.8°C / 44.5%
h3-hermonville 01-08-2026 - 23:10 23.2°C / 42%
h4-hermonville 01-08-2026 - 23:08 23.6°C / 42.5%
h2-hermonville 01-08-2026 - 23:04 25°C / 42%
h1-hermonville 01-08-2026 - 23:04 22°C / 45%
h3-hermonville 01-08-2026 - 23:00 23.3°C / 42%
h4-hermonville 01-08-2026 - 22:58 23.7°C / 42.5%
h2-hermonville 01-08-2026 - 22:54 25.3°C / 41%
h1-hermonville 01-08-2026 - 22:54 22.2°C / 44.5%
h3-hermonville 01-08-2026 - 22:50 23.5°C / 41.5%
h4-hermonville 01-08-2026 - 22:48 23.9°C / 41%
h2-hermonville 01-08-2026 - 22:44 25.4°C / 41.5%
h1-hermonville 01-08-2026 - 22:44 22.4°C / 44.5%
h3-hermonville 01-08-2026 - 22:40 23.6°C / 41.5%
h4-hermonville 01-08-2026 - 22:38 23.9°C / 42%
h2-hermonville 01-08-2026 - 22:34 25.4°C / 41%
h1-hermonville 01-08-2026 - 22:34 22.5°C / 44%
h3-hermonville 01-08-2026 - 22:30 23.8°C / 41%
h4-hermonville 01-08-2026 - 22:28 24.1°C / 41%
h1-hermonville 01-08-2026 - 22:24 22.8°C / 43.5%
h3-hermonville 01-08-2026 - 22:20 24.1°C / 40.5%
h4-hermonville 01-08-2026 - 22:18 24.2°C / 40.5%
h2-hermonville 01-08-2026 - 22:14 25.7°C / 41%
h1-hermonville 01-08-2026 - 22:14 23°C / 43%
h3-hermonville 01-08-2026 - 22:10 24.2°C / 41%
h4-hermonville 01-08-2026 - 22:08 24.3°C / 40.5%
h2-hermonville 01-08-2026 - 22:04 25.8°C / 41.5%
h1-hermonville 01-08-2026 - 22:04 23.2°C / 43%
h3-hermonville 01-08-2026 - 22:00 24.4°C / 40.5%
h4-hermonville 01-08-2026 - 21:58 24.5°C / 40.5%
h2-hermonville 01-08-2026 - 21:54 25.8°C / 40.5%
h1-hermonville 01-08-2026 - 21:54 23.5°C / 42.5%
h3-hermonville 01-08-2026 - 21:50 24.6°C / 40%
h4-hermonville 01-08-2026 - 21:48 24.8°C / 40%
h2-hermonville 01-08-2026 - 21:44 25.9°C / 41%
h1-hermonville 01-08-2026 - 21:44 23.7°C / 42%
h3-hermonville 01-08-2026 - 21:40 24.8°C / 39.5%
h4-hermonville 01-08-2026 - 21:38 24.8°C / 39%
h2-hermonville 01-08-2026 - 21:34 26°C / 39.5%
h1-hermonville 01-08-2026 - 21:34 23.9°C / 41.5%
h3-hermonville 01-08-2026 - 21:30 25°C / 39%
h4-hermonville 01-08-2026 - 21:28 24.9°C / 39%
h2-hermonville 01-08-2026 - 21:24 26.2°C / 38.5%
h1-hermonville 01-08-2026 - 21:24 24.1°C / 40.5%
h3-hermonville 01-08-2026 - 21:20 25.2°C / 38%
h4-hermonville 01-08-2026 - 21:18 25°C / 38%
h2-hermonville 01-08-2026 - 21:14 26.1°C / 38.5%
h1-hermonville 01-08-2026 - 21:14 24.3°C / 39.5%
h3-hermonville 01-08-2026 - 21:10 25.2°C / 37.5%
h4-hermonville 01-08-2026 - 21:08 25.2°C / 37.5%
h2-hermonville 01-08-2026 - 21:04 26.3°C / 38.5%
h1-hermonville 01-08-2026 - 21:04 24.5°C / 38%
h3-hermonville 01-08-2026 - 21:00 25.4°C / 36.5%
h4-hermonville 01-08-2026 - 20:58 25.3°C / 37%
h2-hermonville 01-08-2026 - 20:54 26.4°C / 38.5%
h1-hermonville 01-08-2026 - 20:54 24.7°C / 37.5%
h3-hermonville 01-08-2026 - 20:50 25.5°C / 35.5%
h4-hermonville 01-08-2026 - 20:48 25.5°C / 36%
h2-hermonville 01-08-2026 - 20:44 26.5°C / 37%
h1-hermonville 01-08-2026 - 20:44 25.1°C / 36.5%
h3-hermonville 01-08-2026 - 20:40 25.7°C / 35.5%
h4-hermonville 01-08-2026 - 20:38 25.6°C / 36%
h2-hermonville 01-08-2026 - 20:34 26.4°C / 36%
h1-hermonville 01-08-2026 - 20:34 25.1°C / 36.5%
h4-hermonville 01-08-2026 - 20:28 25.8°C / 35.5%
h2-hermonville 01-08-2026 - 20:24 26.5°C / 38%
h1-hermonville 01-08-2026 - 20:24 25.4°C / 35.5%
h4-hermonville 01-08-2026 - 20:18 26°C / 35.5%
h2-hermonville 01-08-2026 - 20:14 26.7°C / 37.5%
h1-hermonville 01-08-2026 - 20:14 25.6°C / 35.5%
h3-hermonville 01-08-2026 - 20:10 26.2°C / 34.5%
h4-hermonville 01-08-2026 - 20:08 26°C / 35.5%
h2-hermonville 01-08-2026 - 20:04 26.9°C / 37%
h1-hermonville 01-08-2026 - 20:04 25.8°C / 35.5%
h3-hermonville 01-08-2026 - 20:00 26.4°C / 34.5%
h4-hermonville 01-08-2026 - 19:58 26.2°C / 35%
h2-hermonville 01-08-2026 - 19:54 27°C / 36.5%
h1-hermonville 01-08-2026 - 19:54 26°C / 35.5%
h3-hermonville 01-08-2026 - 19:50 26.6°C / 34.5%
h4-hermonville 01-08-2026 - 19:48 26.4°C / 35%
h2-hermonville 01-08-2026 - 19:44 27°C / 36%
h1-hermonville 01-08-2026 - 19:44 26.2°C / 35%
h3-hermonville 01-08-2026 - 19:40 26.8°C / 34.5%
h4-hermonville 01-08-2026 - 19:38 26.4°C / 35%
h2-hermonville 01-08-2026 - 19:34 27.3°C / 37%
h1-hermonville 01-08-2026 - 19:34 26.3°C / 34.5%
h3-hermonville 01-08-2026 - 19:30 26.8°C / 34%
h4-hermonville 01-08-2026 - 19:28 26.6°C / 35%
h2-hermonville 01-08-2026 - 19:24 27.5°C / 36%
h1-hermonville 01-08-2026 - 19:24 26.5°C / 35%
h3-hermonville 01-08-2026 - 19:20 26.9°C / 35%
h4-hermonville 01-08-2026 - 19:18 26.7°C / 35%
h2-hermonville 01-08-2026 - 19:14 27.6°C / 36.5%
h1-hermonville 01-08-2026 - 19:14 26.7°C / 35%
h3-hermonville 01-08-2026 - 19:10 27.1°C / 34%
h4-hermonville 01-08-2026 - 19:08 26.7°C / 35%
h2-hermonville 01-08-2026 - 19:04 28°C / 36%
h1-hermonville 01-08-2026 - 19:04 26.8°C / 35%
h4-hermonville 01-08-2026 - 18:58 26.9°C / 35%
h2-hermonville 01-08-2026 - 18:54 28.5°C / 34.5%
h1-hermonville 01-08-2026 - 18:54 26.8°C / 34.5%
h3-hermonville 01-08-2026 - 18:50 27.4°C / 34.5%
h4-hermonville 01-08-2026 - 18:48 27.1°C / 35%
h2-hermonville 01-08-2026 - 18:44 29.8°C / 33%
h1-hermonville 01-08-2026 - 18:44 27.1°C / 35%
h3-hermonville 01-08-2026 - 18:40 27.6°C / 34.5%
h4-hermonville 01-08-2026 - 18:38 27.3°C / 35%
h2-hermonville 01-08-2026 - 18:34 32.6°C / 28.5%
h1-hermonville 01-08-2026 - 18:34 27.3°C / 34.5%
h3-hermonville 01-08-2026 - 18:30 27.6°C / 33.5%
h4-hermonville 01-08-2026 - 18:28 27.4°C / 34.5%
h2-hermonville 01-08-2026 - 18:24 32.5°C / 29.5%
h1-hermonville 01-08-2026 - 18:24 27.5°C / 34.5%
h3-hermonville 01-08-2026 - 18:20 27.7°C / 33.5%
h4-hermonville 01-08-2026 - 18:18 27.7°C / 34%
h2-hermonville 01-08-2026 - 18:14 33.1°C / 28.5%
h1-hermonville 01-08-2026 - 18:14 27.6°C / 34%
h3-hermonville 01-08-2026 - 18:10 28.1°C / 33%
h4-hermonville 01-08-2026 - 18:08 27.9°C / 34.5%
h2-hermonville 01-08-2026 - 18:04 33.9°C / 28.5%
h1-hermonville 01-08-2026 - 18:04 27.8°C / 34%
h4-hermonville 01-08-2026 - 17:58 27.6°C / 34%
h2-hermonville 01-08-2026 - 17:54 31.8°C / 30.5%
h1-hermonville 01-08-2026 - 17:54 27.5°C / 35%
h3-hermonville 01-08-2026 - 17:50 28°C / 34%
h4-hermonville 01-08-2026 - 17:48 27.4°C / 34.5%
h2-hermonville 01-08-2026 - 17:44 31°C / 32%
h3-hermonville 01-08-2026 - 17:40 27.9°C / 33.5%
h4-hermonville 01-08-2026 - 17:38 27.6°C / 35%
h2-hermonville 01-08-2026 - 17:34 33.6°C / 26.5%
h1-hermonville 01-08-2026 - 17:34 27.6°C / 35%
h3-hermonville 01-08-2026 - 17:30 28°C / 34%
h4-hermonville 01-08-2026 - 17:28 27.5°C / 35%
h2-hermonville 01-08-2026 - 17:24 33.4°C / 28.5%
h1-hermonville 01-08-2026 - 17:24 27.6°C / 35%
h3-hermonville 01-08-2026 - 17:20 28°C / 34%
h4-hermonville 01-08-2026 - 17:18 27.5°C / 35%
h2-hermonville 01-08-2026 - 17:14 33.5°C / 27.5%
h1-hermonville 01-08-2026 - 17:14 27.5°C / 35%
h3-hermonville 01-08-2026 - 17:10 28.3°C / 33.5%
h4-hermonville 01-08-2026 - 17:08 27.6°C / 35.5%
h2-hermonville 01-08-2026 - 17:04 32.8°C / 28.5%
h1-hermonville 01-08-2026 - 17:04 27.6°C / 35.5%
h4-hermonville 01-08-2026 - 16:58 27.6°C / 34.5%
h2-hermonville 01-08-2026 - 16:54 32.1°C / 31%
h1-hermonville 01-08-2026 - 16:54 27.6°C / 34.5%
h3-hermonville 01-08-2026 - 16:50 29.1°C / 33.5%
h4-hermonville 01-08-2026 - 16:48 27.6°C / 35.5%
h2-hermonville 01-08-2026 - 16:44 30.7°C / 33.5%
h1-hermonville 01-08-2026 - 16:44 27.4°C / 36.5%
h3-hermonville 01-08-2026 - 16:40 28.2°C / 34.5%
h4-hermonville 01-08-2026 - 16:38 27.4°C / 36%
h2-hermonville 01-08-2026 - 16:34 29.5°C / 35.5%
h1-hermonville 01-08-2026 - 16:34 27.1°C / 36.5%
h3-hermonville 01-08-2026 - 16:30 28.3°C / 34%
h4-hermonville 01-08-2026 - 16:28 27.4°C / 36%
h2-hermonville 01-08-2026 - 16:24 30.1°C / 33.5%
h1-hermonville 01-08-2026 - 16:24 27.3°C / 37%
h3-hermonville 01-08-2026 - 16:20 28.4°C / 34.5%
h4-hermonville 01-08-2026 - 16:18 27.4°C / 35.5%
h2-hermonville 01-08-2026 - 16:14 29.7°C / 35%
h1-hermonville 01-08-2026 - 16:14 27°C / 36.5%
h3-hermonville 01-08-2026 - 16:10 28.5°C / 35%
h4-hermonville 01-08-2026 - 16:08 27.4°C / 37%
h2-hermonville 01-08-2026 - 16:04 29°C / 36.5%
h1-hermonville 01-08-2026 - 16:04 26.9°C / 37.5%
h3-hermonville 01-08-2026 - 16:00 28.2°C / 35.5%
h4-hermonville 01-08-2026 - 15:58 27.3°C / 37%
h2-hermonville 01-08-2026 - 15:54 28.7°C / 38%
h1-hermonville 01-08-2026 - 15:54 26.7°C / 38%
h3-hermonville 01-08-2026 - 15:50 27.6°C / 36.5%
h4-hermonville 01-08-2026 - 15:48 27.3°C / 36.5%
h2-hermonville 01-08-2026 - 15:44 29.2°C / 34.5%
h1-hermonville 01-08-2026 - 15:44 26.5°C / 39%
h3-hermonville 01-08-2026 - 15:40 28°C / 36.5%
h4-hermonville 01-08-2026 - 15:38 27.2°C / 37%
h2-hermonville 01-08-2026 - 15:34 27.6°C / 40%
h1-hermonville 01-08-2026 - 15:34 26.6°C / 39%
h3-hermonville 01-08-2026 - 15:30 27.6°C / 37.5%
h4-hermonville 01-08-2026 - 15:28 27.1°C / 37%
h2-hermonville 01-08-2026 - 15:24 27.2°C / 41.5%
h1-hermonville 01-08-2026 - 15:24 26.3°C / 39.5%
h3-hermonville 01-08-2026 - 15:20 27.9°C / 37.5%
h4-hermonville 01-08-2026 - 15:18 27.2°C / 38%
h2-hermonville 01-08-2026 - 15:14 27.4°C / 41.5%
h1-hermonville 01-08-2026 - 15:14 26.2°C / 40.5%
h3-hermonville 01-08-2026 - 15:10 27°C / 39%
h4-hermonville 01-08-2026 - 15:08 27.1°C / 39%
h2-hermonville 01-08-2026 - 15:04 27°C / 43%
h1-hermonville 01-08-2026 - 15:04 26°C / 41%
h3-hermonville 01-08-2026 - 15:00 27.1°C / 39.5%
h4-hermonville 01-08-2026 - 14:58 27°C / 38.5%
h2-hermonville 01-08-2026 - 14:54 26.2°C / 43%
h1-hermonville 01-08-2026 - 14:54 25.7°C / 42%
h3-hermonville 01-08-2026 - 14:50 26.8°C / 40%
h4-hermonville 01-08-2026 - 14:48 26.9°C / 39.5%
h2-hermonville 01-08-2026 - 14:44 26.3°C / 45%
h1-hermonville 01-08-2026 - 14:44 25.5°C / 43.5%
h3-hermonville 01-08-2026 - 14:40 26.9°C / 40%
h4-hermonville 01-08-2026 - 14:38 27.1°C / 39.5%
h2-hermonville 01-08-2026 - 14:34 26.3°C / 44%
h1-hermonville 01-08-2026 - 14:34 25.6°C / 43%
h3-hermonville 01-08-2026 - 14:30 26.9°C / 39.5%
h4-hermonville 01-08-2026 - 14:28 27.1°C / 38.5%
h2-hermonville 01-08-2026 - 14:24 26.1°C / 43.5%
h1-hermonville 01-08-2026 - 14:24 25.6°C / 42.5%
h3-hermonville 01-08-2026 - 14:20 26.8°C / 41%
h4-hermonville 01-08-2026 - 14:18 27.1°C / 40%
h2-hermonville 01-08-2026 - 14:14 26°C / 45.5%
h1-hermonville 01-08-2026 - 14:14 25.4°C / 44%
h3-hermonville 01-08-2026 - 14:10 26.8°C / 41%
h4-hermonville 01-08-2026 - 14:08 27.5°C / 39.5%
h2-hermonville 01-08-2026 - 14:04 26.1°C / 46%
h1-hermonville 01-08-2026 - 14:04 25.7°C / 44%
h3-hermonville 01-08-2026 - 14:00 26.7°C / 42%
h4-hermonville 01-08-2026 - 13:58 27.7°C / 38.5%
h2-hermonville 01-08-2026 - 13:54 26.3°C / 46%
h1-hermonville 01-08-2026 - 13:54 25.4°C / 45%
h3-hermonville 01-08-2026 - 13:50 26.6°C / 42%
h4-hermonville 01-08-2026 - 13:48 28°C / 39.5%
h2-hermonville 01-08-2026 - 13:44 26.4°C / 45.5%
h1-hermonville 01-08-2026 - 13:44 25.4°C / 46%
h3-hermonville 01-08-2026 - 13:40 26.5°C / 43%
h4-hermonville 01-08-2026 - 13:38 27.8°C / 39.5%
h2-hermonville 01-08-2026 - 13:34 26°C / 47%
h1-hermonville 01-08-2026 - 13:34 25.1°C / 46%
h3-hermonville 01-08-2026 - 13:30 26.1°C / 43.5%
h4-hermonville 01-08-2026 - 13:28 28.1°C / 39.5%
h2-hermonville 01-08-2026 - 13:24 25.5°C / 48%
h1-hermonville 01-08-2026 - 13:24 25.1°C / 46.5%
h3-hermonville 01-08-2026 - 13:20 26.4°C / 44%
h4-hermonville 01-08-2026 - 13:18 28.1°C / 39.5%
h2-hermonville 01-08-2026 - 13:14 25.8°C / 48%
h1-hermonville 01-08-2026 - 13:14 24.9°C / 48%
h3-hermonville 01-08-2026 - 13:10 26.1°C / 44.5%
h4-hermonville 01-08-2026 - 13:08 28.2°C / 39.5%
h2-hermonville 01-08-2026 - 13:04 25.9°C / 45.5%
h1-hermonville 01-08-2026 - 13:04 24.7°C / 48%
h3-hermonville 01-08-2026 - 13:00 25.7°C / 45%
h4-hermonville 01-08-2026 - 12:58 27.9°C / 40.5%
h2-hermonville 01-08-2026 - 12:54 25.5°C / 49%
h1-hermonville 01-08-2026 - 12:54 24.5°C / 48%
h3-hermonville 01-08-2026 - 12:50 26°C / 45.5%
h4-hermonville 01-08-2026 - 12:48 28.1°C / 40%
h2-hermonville 01-08-2026 - 12:44 25.8°C / 46.5%
h1-hermonville 01-08-2026 - 12:44 24.4°C / 50%
h3-hermonville 01-08-2026 - 12:40 26°C / 46%
h4-hermonville 01-08-2026 - 12:38 28.7°C / 40.5%
h2-hermonville 01-08-2026 - 12:34 25.4°C / 50.5%
h1-hermonville 01-08-2026 - 12:34 24.3°C / 51.5%
h3-hermonville 01-08-2026 - 12:30 25.6°C / 47%
h4-hermonville 01-08-2026 - 12:28 29.2°C / 39%
h2-hermonville 01-08-2026 - 12:24 25.2°C / 50.5%
h1-hermonville 01-08-2026 - 12:24 24.2°C / 51.5%
h3-hermonville 01-08-2026 - 12:20 25.3°C / 48.5%
h4-hermonville 01-08-2026 - 12:18 28.9°C / 39.5%
h2-hermonville 01-08-2026 - 12:14 24.9°C / 49.5%
h1-hermonville 01-08-2026 - 12:14 24°C / 52.5%
h3-hermonville 01-08-2026 - 12:10 24.8°C / 51%
h4-hermonville 01-08-2026 - 12:08 31.5°C / 35.5%
h2-hermonville 01-08-2026 - 12:04 24.5°C / 52.5%
h1-hermonville 01-08-2026 - 12:04 23.7°C / 53.5%
h3-hermonville 01-08-2026 - 12:00 24.4°C / 50.5%
h4-hermonville 01-08-2026 - 11:58 34.1°C / 32%
h2-hermonville 01-08-2026 - 11:54 24.3°C / 55%
h1-hermonville 01-08-2026 - 11:54 23.6°C / 54%
h3-hermonville 01-08-2026 - 11:50 24.5°C / 53%
h4-hermonville 01-08-2026 - 11:48 34°C / 33.5%
h2-hermonville 01-08-2026 - 11:44 24.3°C / 55.5%
h1-hermonville 01-08-2026 - 11:44 23.7°C / 56.5%
h3-hermonville 01-08-2026 - 11:40 24.3°C / 54%
h4-hermonville 01-08-2026 - 11:38 34°C / 33.5%
h2-hermonville 01-08-2026 - 11:34 24.2°C / 55%
h1-hermonville 01-08-2026 - 11:34 23.2°C / 57.5%
h3-hermonville 01-08-2026 - 11:30 24.2°C / 55%
h4-hermonville 01-08-2026 - 11:28 33.5°C / 35%
h2-hermonville 01-08-2026 - 11:24 24°C / 56.5%
h1-hermonville 01-08-2026 - 11:24 23.1°C / 58.5%
h3-hermonville 01-08-2026 - 11:20 23.9°C / 55.5%
h2-hermonville 01-08-2026 - 11:14 23.6°C / 58%
h3-hermonville 01-08-2026 - 11:10 23.5°C / 57%
h4-hermonville 01-08-2026 - 11:08 34°C / 34%
h2-hermonville 01-08-2026 - 11:04 23.4°C / 59%
h1-hermonville 01-08-2026 - 11:04 22.7°C / 59.5%
h3-hermonville 01-08-2026 - 11:00 23.3°C / 58%
h4-hermonville 01-08-2026 - 10:58 33.7°C / 34.5%
h2-hermonville 01-08-2026 - 10:54 23.3°C / 58%
h1-hermonville 01-08-2026 - 10:54 22.3°C / 61.5%
h3-hermonville 01-08-2026 - 10:50 23.2°C / 58.5%
h4-hermonville 01-08-2026 - 10:48 32.9°C / 36%
h2-hermonville 01-08-2026 - 10:44 23.4°C / 59%
h1-hermonville 01-08-2026 - 10:44 22.1°C / 62%
h3-hermonville 01-08-2026 - 10:40 23.4°C / 58%
h4-hermonville 01-08-2026 - 10:38 32.1°C / 37.5%
h2-hermonville 01-08-2026 - 10:34 22.9°C / 60.5%
h1-hermonville 01-08-2026 - 10:34 22.1°C / 62.5%
h3-hermonville 01-08-2026 - 10:30 23.2°C / 58.5%
h4-hermonville 01-08-2026 - 10:28 32.4°C / 37%
h2-hermonville 01-08-2026 - 10:24 22.6°C / 60.5%
h1-hermonville 01-08-2026 - 10:24 21.7°C / 63.5%
h3-hermonville 01-08-2026 - 10:20 22.9°C / 59.5%
h4-hermonville 01-08-2026 - 10:18 31.9°C / 37%
h2-hermonville 01-08-2026 - 10:14 22.3°C / 61%
h1-hermonville 01-08-2026 - 10:14 21.3°C / 64%
h3-hermonville 01-08-2026 - 10:10 22.7°C / 59.5%
h4-hermonville 01-08-2026 - 10:08 31.7°C / 37.5%
h2-hermonville 01-08-2026 - 10:04 22.1°C / 62%
h1-hermonville 01-08-2026 - 10:04 20.9°C / 65%
h3-hermonville 01-08-2026 - 10:00 22.5°C / 60.5%
h4-hermonville 01-08-2026 - 09:58 31.8°C / 38%
h2-hermonville 01-08-2026 - 09:54 21.8°C / 62%
h1-hermonville 01-08-2026 - 09:54 20.7°C / 66%
h3-hermonville 01-08-2026 - 09:50 22.4°C / 60.5%
h4-hermonville 01-08-2026 - 09:48 29.8°C / 41%
h2-hermonville 01-08-2026 - 09:44 21.7°C / 62%
h1-hermonville 01-08-2026 - 09:44 20.4°C / 67%
h3-hermonville 01-08-2026 - 09:40 22.1°C / 61.5%
h4-hermonville 01-08-2026 - 09:38 30.1°C / 40.5%
h1-hermonville 01-08-2026 - 09:34 20.1°C / 67.5%
h3-hermonville 01-08-2026 - 09:30 21.9°C / 61.5%
h4-hermonville 01-08-2026 - 09:28 28.6°C / 43%
h2-hermonville 01-08-2026 - 09:24 21.3°C / 63.5%
h1-hermonville 01-08-2026 - 09:24 19.8°C / 68.5%
h3-hermonville 01-08-2026 - 09:20 21.6°C / 63%
h4-hermonville 01-08-2026 - 09:18 28.9°C / 43%
h2-hermonville 01-08-2026 - 09:14 21.1°C / 64%
h1-hermonville 01-08-2026 - 09:14 19.6°C / 69.5%
h3-hermonville 01-08-2026 - 09:10 21.1°C / 64%
h4-hermonville 01-08-2026 - 09:08 28.2°C / 45%
h2-hermonville 01-08-2026 - 09:04 21°C / 64%
h1-hermonville 01-08-2026 - 09:04 19.4°C / 71%
h3-hermonville 01-08-2026 - 09:00 20.8°C / 65%
h4-hermonville 01-08-2026 - 08:58 27.4°C / 46.5%
h2-hermonville 01-08-2026 - 08:54 21.1°C / 65%
h1-hermonville 01-08-2026 - 08:54 19.2°C / 71.5%
h3-hermonville 01-08-2026 - 08:50 20.6°C / 66.5%
h4-hermonville 01-08-2026 - 08:48 26°C / 51%
h2-hermonville 01-08-2026 - 08:44 21°C / 64.5%
h1-hermonville 01-08-2026 - 08:44 18.8°C / 73%
h3-hermonville 01-08-2026 - 08:40 20.5°C / 66%
h4-hermonville 01-08-2026 - 08:38 23.7°C / 56.5%
h1-hermonville 01-08-2026 - 08:34 18.6°C / 73%
h3-hermonville 01-08-2026 - 08:30 20.4°C / 66%
h4-hermonville 01-08-2026 - 08:28 23°C / 57.5%
h2-hermonville 01-08-2026 - 08:24 21.4°C / 63%
h1-hermonville 01-08-2026 - 08:24 18.7°C / 72.5%
h3-hermonville 01-08-2026 - 08:20 20.4°C / 66.5%
h4-hermonville 01-08-2026 - 08:18 22.5°C / 59%
h2-hermonville 01-08-2026 - 08:14 21.2°C / 63%
h1-hermonville 01-08-2026 - 08:14 18.6°C / 73%
h3-hermonville 01-08-2026 - 08:10 20.1°C / 66.5%
h4-hermonville 01-08-2026 - 08:08 22.3°C / 59.5%
h2-hermonville 01-08-2026 - 08:04 21°C / 64%
h1-hermonville 01-08-2026 - 08:04 18.4°C / 73.5%
h3-hermonville 01-08-2026 - 08:00 20.1°C / 66.5%
h4-hermonville 01-08-2026 - 07:58 21.8°C / 60.5%
h2-hermonville 01-08-2026 - 07:54 21°C / 64.5%
h1-hermonville 01-08-2026 - 07:54 18.2°C / 74%
h3-hermonville 01-08-2026 - 07:50 20.2°C / 66.5%
h4-hermonville 01-08-2026 - 07:48 21.6°C / 61%
h2-hermonville 01-08-2026 - 07:44 21.2°C / 64%
h1-hermonville 01-08-2026 - 07:44 18.3°C / 73.5%
h3-hermonville 01-08-2026 - 07:40 20.1°C / 66.5%
h4-hermonville 01-08-2026 - 07:38 21.5°C / 61%
h2-hermonville 01-08-2026 - 07:34 20.4°C / 66%
h1-hermonville 01-08-2026 - 07:34 18.3°C / 73.5%
h3-hermonville 01-08-2026 - 07:30 20°C / 67%
h4-hermonville 01-08-2026 - 07:28 21.2°C / 62%
h2-hermonville 01-08-2026 - 07:24 20.5°C / 65.5%
h1-hermonville 01-08-2026 - 07:24 18.3°C / 74%
h3-hermonville 01-08-2026 - 07:20 20°C / 67%
h4-hermonville 01-08-2026 - 07:18 21.1°C / 62.5%
h2-hermonville 01-08-2026 - 07:14 20.4°C / 66.5%
h1-hermonville 01-08-2026 - 07:14 18.2°C / 74.5%
h3-hermonville 01-08-2026 - 07:10 19.9°C / 67.5%
h4-hermonville 01-08-2026 - 07:08 21.1°C / 63%
h2-hermonville 01-08-2026 - 07:04 20.5°C / 65.5%
h1-hermonville 01-08-2026 - 07:04 17.9°C / 75%
h3-hermonville 01-08-2026 - 07:00 19.7°C / 67.5%
h4-hermonville 01-08-2026 - 06:58 21°C / 62.5%
h2-hermonville 01-08-2026 - 06:54 20.5°C / 65%
h1-hermonville 01-08-2026 - 06:54 17.9°C / 75%
h3-hermonville 01-08-2026 - 06:50 19.6°C / 67.5%
h4-hermonville 01-08-2026 - 06:48 20.9°C / 62.5%
h2-hermonville 01-08-2026 - 06:44 20.9°C / 64.5%
h1-hermonville 01-08-2026 - 06:44 17.8°C / 75.5%
h3-hermonville 01-08-2026 - 06:40 19.7°C / 67.5%
h4-hermonville 01-08-2026 - 06:38 21°C / 62.5%
h2-hermonville 01-08-2026 - 06:34 20.3°C / 65.5%
h1-hermonville 01-08-2026 - 06:34 17.9°C / 75%
h3-hermonville 01-08-2026 - 06:30 19.8°C / 67%
h4-hermonville 01-08-2026 - 06:28 21.1°C / 62.5%
h2-hermonville 01-08-2026 - 06:24 20.7°C / 64.5%
h1-hermonville 01-08-2026 - 06:24 17.9°C / 75%
h3-hermonville 01-08-2026 - 06:20 19.8°C / 67%
h4-hermonville 01-08-2026 - 06:18 20.9°C / 62.5%
h2-hermonville 01-08-2026 - 06:14 20.9°C / 65%
h1-hermonville 01-08-2026 - 06:14 18.1°C / 74.5%
h3-hermonville 01-08-2026 - 06:10 19.8°C / 67%
h4-hermonville 01-08-2026 - 06:08 21°C / 62.5%
h2-hermonville 01-08-2026 - 06:04 21.1°C / 63.5%
h1-hermonville 01-08-2026 - 06:04 18.2°C / 74%
h3-hermonville 01-08-2026 - 06:00 20.1°C / 67%
h4-hermonville 01-08-2026 - 05:58 21.1°C / 62%
h1-hermonville 01-08-2026 - 05:54 18.2°C / 73.5%
h3-hermonville 01-08-2026 - 05:50 19.9°C / 67%
h4-hermonville 01-08-2026 - 05:48 21.2°C / 62%
h2-hermonville 01-08-2026 - 05:44 21.5°C / 62.5%
h1-hermonville 01-08-2026 - 05:44 18.4°C / 73.5%
h3-hermonville 01-08-2026 - 05:40 20.1°C / 66.5%
h4-hermonville 01-08-2026 - 05:38 21.4°C / 62%
h2-hermonville 01-08-2026 - 05:34 21.7°C / 63%
h3-hermonville 01-08-2026 - 05:30 20.2°C / 66%
h4-hermonville 01-08-2026 - 05:28 21.3°C / 62.5%
h2-hermonville 01-08-2026 - 05:24 21.6°C / 62.5%
h1-hermonville 01-08-2026 - 05:24 18.4°C / 73.5%
h3-hermonville 01-08-2026 - 05:20 20.3°C / 66%
h4-hermonville 01-08-2026 - 05:18 21.3°C / 62%
h2-hermonville 01-08-2026 - 05:14 21.4°C / 62.5%
h1-hermonville 01-08-2026 - 05:14 18.5°C / 73.5%
h3-hermonville 01-08-2026 - 05:10 20.3°C / 66%
h4-hermonville 01-08-2026 - 05:08 21.4°C / 62%
h2-hermonville 01-08-2026 - 05:04 21.4°C / 62.5%
h1-hermonville 01-08-2026 - 05:04 18.5°C / 73%
h3-hermonville 01-08-2026 - 05:00 20.3°C / 66%
h4-hermonville 01-08-2026 - 04:58 21.5°C / 62%
h2-hermonville 01-08-2026 - 04:54 22.1°C / 60.5%
h1-hermonville 01-08-2026 - 04:54 18.6°C / 72.5%
h3-hermonville 01-08-2026 - 04:50 20.4°C / 65.5%
h4-hermonville 01-08-2026 - 04:48 21.4°C / 62%
h2-hermonville 01-08-2026 - 04:44 22°C / 61.5%
h1-hermonville 01-08-2026 - 04:44 18.6°C / 72.5%
h3-hermonville 01-08-2026 - 04:40 20.4°C / 66%
h4-hermonville 01-08-2026 - 04:38 21.4°C / 62%
h2-hermonville 01-08-2026 - 04:34 22.4°C / 61%
h1-hermonville 01-08-2026 - 04:34 18.8°C / 72%
h3-hermonville 01-08-2026 - 04:30 20.6°C / 65.5%
h4-hermonville 01-08-2026 - 04:28 21.5°C / 61.5%
h2-hermonville 01-08-2026 - 04:24 22.2°C / 61.5%
h1-hermonville 01-08-2026 - 04:24 19°C / 72%
h3-hermonville 01-08-2026 - 04:20 20.6°C / 65%
h4-hermonville 01-08-2026 - 04:18 21.6°C / 61.5%
h2-hermonville 01-08-2026 - 04:14 22.1°C / 61.5%
h1-hermonville 01-08-2026 - 04:14 19°C / 71.5%
h3-hermonville 01-08-2026 - 04:10 20.7°C / 65.5%
h4-hermonville 01-08-2026 - 04:08 21.7°C / 61.5%
h2-hermonville 01-08-2026 - 04:04 22.3°C / 60.5%
h1-hermonville 01-08-2026 - 04:04 19.1°C / 71.5%
h3-hermonville 01-08-2026 - 04:00 20.5°C / 65.5%
h4-hermonville 01-08-2026 - 03:58 21.7°C / 61%
h2-hermonville 01-08-2026 - 03:54 22.5°C / 59.5%
h1-hermonville 01-08-2026 - 03:54 19.2°C / 71%
h3-hermonville 01-08-2026 - 03:50 20.5°C / 65.5%
h4-hermonville 01-08-2026 - 03:48 21.8°C / 61%
h2-hermonville 01-08-2026 - 03:44 22.7°C / 59.5%
h1-hermonville 01-08-2026 - 03:44 19.2°C / 71%
h3-hermonville 01-08-2026 - 03:40 20.7°C / 65%
h4-hermonville 01-08-2026 - 03:38 21.9°C / 61%
h2-hermonville 01-08-2026 - 03:34 22.7°C / 59.5%
h1-hermonville 01-08-2026 - 03:34 19.2°C / 71%
h3-hermonville 01-08-2026 - 03:30 20.8°C / 65%
h4-hermonville 01-08-2026 - 03:28 22°C / 60.5%
h2-hermonville 01-08-2026 - 03:24 22.5°C / 60%
h1-hermonville 01-08-2026 - 03:24 19.2°C / 71%
h3-hermonville 01-08-2026 - 03:20 20.9°C / 64.5%
h4-hermonville 01-08-2026 - 03:18 21.9°C / 61%
h2-hermonville 01-08-2026 - 03:14 22.5°C / 60.5%
h1-hermonville 01-08-2026 - 03:14 19.3°C / 70.5%
h3-hermonville 01-08-2026 - 03:10 20.8°C / 64.5%
h4-hermonville 01-08-2026 - 03:08 22°C / 60.5%
h2-hermonville 01-08-2026 - 03:04 22.7°C / 60.5%
h1-hermonville 01-08-2026 - 03:04 19.3°C / 70.5%
h3-hermonville 01-08-2026 - 03:00 21°C / 64.5%
h4-hermonville 01-08-2026 - 02:58 22°C / 60.5%
h2-hermonville 01-08-2026 - 02:54 22.5°C / 60.5%
h1-hermonville 01-08-2026 - 02:54 19.4°C / 71%
h3-hermonville 01-08-2026 - 02:50 20.9°C / 65%
h4-hermonville 01-08-2026 - 02:48 22°C / 61%
h2-hermonville 01-08-2026 - 02:44 22.9°C / 59.5%
h1-hermonville 01-08-2026 - 02:44 19.4°C / 71%
h3-hermonville 01-08-2026 - 02:40 21°C / 64.5%
h4-hermonville 01-08-2026 - 02:38 22.1°C / 61%
h2-hermonville 01-08-2026 - 02:34 22.9°C / 60%
h1-hermonville 01-08-2026 - 02:34 19.5°C / 71%
h3-hermonville 01-08-2026 - 02:30 21.1°C / 64.5%
h4-hermonville 01-08-2026 - 02:28 22.2°C / 60.5%
h2-hermonville 01-08-2026 - 02:24 22.5°C / 61%
h1-hermonville 01-08-2026 - 02:24 19.6°C / 70.5%
h3-hermonville 01-08-2026 - 02:20 21.2°C / 65%
h4-hermonville 01-08-2026 - 02:18 22.4°C / 60.5%
h2-hermonville 01-08-2026 - 02:14 22.4°C / 62%
h1-hermonville 01-08-2026 - 02:14 19.7°C / 70.5%
h3-hermonville 01-08-2026 - 02:10 21.2°C / 64.5%
h4-hermonville 01-08-2026 - 02:08 22.4°C / 60.5%
h2-hermonville 01-08-2026 - 02:04 22.6°C / 61%
h1-hermonville 01-08-2026 - 02:04 19.9°C / 70.5%
h3-hermonville 01-08-2026 - 02:00 21.3°C / 64.5%
h4-hermonville 01-08-2026 - 01:58 22.4°C / 60.5%
h2-hermonville 01-08-2026 - 01:54 22.6°C / 62%
h1-hermonville 01-08-2026 - 01:54 19.9°C / 70.5%
h3-hermonville 01-08-2026 - 01:50 21.5°C / 64.5%
h4-hermonville 01-08-2026 - 01:48 22.5°C / 61%
h2-hermonville 01-08-2026 - 01:44 23.1°C / 59.5%
h1-hermonville 01-08-2026 - 01:44 20°C / 70%
h3-hermonville 01-08-2026 - 01:40 21.5°C / 64%
h4-hermonville 01-08-2026 - 01:38 22.5°C / 61%
h2-hermonville 01-08-2026 - 01:34 23.3°C / 59.5%
h1-hermonville 01-08-2026 - 01:34 20.2°C / 70%
h3-hermonville 01-08-2026 - 01:30 21.7°C / 64%
h4-hermonville 01-08-2026 - 01:28 22.5°C / 61%
h2-hermonville 01-08-2026 - 01:24 23.1°C / 61%
h1-hermonville 01-08-2026 - 01:24 20.2°C / 70.5%
h3-hermonville 01-08-2026 - 01:20 21.7°C / 64%
h4-hermonville 01-08-2026 - 01:18 22.7°C / 61%
h2-hermonville 01-08-2026 - 01:14 23.6°C / 59.5%
h1-hermonville 01-08-2026 - 01:14 20.2°C / 70.5%
h3-hermonville 01-08-2026 - 01:10 21.8°C / 64%
h4-hermonville 01-08-2026 - 01:08 22.7°C / 61.5%
h2-hermonville 01-08-2026 - 01:04 23.6°C / 60%
h1-hermonville 01-08-2026 - 01:04 20.4°C / 70.5%
h3-hermonville 01-08-2026 - 01:00 22°C / 64%
h4-hermonville 01-08-2026 - 00:58 22.8°C / 61.5%
h2-hermonville 01-08-2026 - 00:54 23.9°C / 59.5%
h1-hermonville 01-08-2026 - 00:54 20.5°C / 70%
h3-hermonville 01-08-2026 - 00:50 22°C / 64.5%
h4-hermonville 01-08-2026 - 00:48 22.8°C / 61%
h2-hermonville 01-08-2026 - 00:44 23.9°C / 59.5%
h1-hermonville 01-08-2026 - 00:44 20.6°C / 70%
h3-hermonville 01-08-2026 - 00:40 22.2°C / 64.5%
h4-hermonville 01-08-2026 - 00:38 22.7°C / 62%
h2-hermonville 01-08-2026 - 00:34 24.1°C / 59%
h1-hermonville 01-08-2026 - 00:34 20.7°C / 70%
h3-hermonville 01-08-2026 - 00:30 22.2°C / 64.5%
h4-hermonville 01-08-2026 - 00:28 22.9°C / 62%
h2-hermonville 01-08-2026 - 00:24 24.2°C / 59.5%
h1-hermonville 01-08-2026 - 00:24 20.8°C / 70.5%
h3-hermonville 01-08-2026 - 00:20 22.2°C / 65%
h4-hermonville 01-08-2026 - 00:18 23.1°C / 61.5%
h2-hermonville 01-08-2026 - 00:14 24.3°C / 59.5%
h1-hermonville 01-08-2026 - 00:14 21.1°C / 70%
h3-hermonville 01-08-2026 - 00:10 22.3°C / 65%
h4-hermonville 01-08-2026 - 00:08 23.1°C / 61.5%
h2-hermonville 01-08-2026 - 00:04 24.5°C / 59.5%
h1-hermonville 01-08-2026 - 00:04 21.2°C / 70%
h3-hermonville 01-08-2026 - 00:00 22.5°C / 65%